sensor_id;sensor_type;location;lat;lon;timestamp;P1;durP1;ratioP1;P2;durP2;ratioP2
20294;SDS011;10306;52.128;5.208;2023-04-01T00:00:17;20.67;;;10.30;;
20294;SDS011;10306;52.128;5.208;2023-04-01T00:02:43;28.47;;;9.60;;
20294;SDS011;10306;52.128;5.208;2023-04-01T00:05:10;19.57;;;9.00;;
20294;SDS011;10306;52.128;5.208;2023-04-01T00:07:36;27.20;;;9.93;;
20294;SDS011;10306;52.128;5.208;2023-04-01T00:10:03;20.10;;;9.40;;
20294;SDS011;10306;52.128;5.208;2023-04-01T00:12:29;21.47;;;9.37;;
20294;SDS011;10306;52.128;5.208;2023-04-01T00:14:55;17.57;;;9.87;;
20294;SDS011;10306;52.128;5.208;2023-04-01T00:17:21;24.30;;;10.23;;
20294;SDS011;10306;52.128;5.208;2023-04-01T00:19:47;19.60;;;8.80;;
20294;SDS011;10306;52.128;5.208;2023-04-01T00:22:14;19.97;;;9.90;;
20294;SDS011;10306;52.128;5.208;2023-04-01T00:24:40;23.83;;;11.00;;
20294;SDS011;10306;52.128;5.208;2023-04-01T00:27:06;30.37;;;11.10;;
20294;SDS011;10306;52.128;5.208;2023-04-01T00:29:33;20.77;;;10.40;;
20294;SDS011;10306;52.128;5.208;2023-04-01T00:31:59;18.33;;;10.07;;
20294;SDS011;10306;52.128;5.208;2023-04-01T00:34:25;24.53;;;11.17;;
20294;SDS011;10306;52.128;5.208;2023-04-01T00:36:51;31.40;;;11.37;;
20294;SDS011;10306;52.128;5.208;2023-04-01T00:39:19;26.13;;;10.80;;
20294;SDS011;10306;52.128;5.208;2023-04-01T00:41:45;22.80;;;10.23;;
20294;SDS011;10306;52.128;5.208;2023-04-01T00:44:21;23.53;;;9.70;;
20294;SDS011;10306;52.128;5.208;2023-04-01T00:46:47;19.53;;;10.50;;
20294;SDS011;10306;52.128;5.208;2023-04-01T00:49:14;21.33;;;10.43;;
20294;SDS011;10306;52.128;5.208;2023-04-01T00:51:41;24.13;;;10.90;;
20294;SDS011;10306;52.128;5.208;2023-04-01T00:54:07;20.13;;;10.93;;
20294;SDS011;10306;52.128;5.208;2023-04-01T00:56:37;17.77;;;10.37;;
20294;SDS011;10306;52.128;5.208;2023-04-01T00:59:09;20.27;;;11.30;;
20294;SDS011;10306;52.128;5.208;2023-04-01T01:01:36;20.47;;;10.43;;
20294;SDS011;10306;52.128;5.208;2023-04-01T01:04:03;19.17;;;10.67;;
20294;SDS011;10306;52.128;5.208;2023-04-01T01:11:28;17.50;;;11.37;;
20294;SDS011;10306;52.128;5.208;2023-04-01T01:13:59;17.37;;;9.73;;
20294;SDS011;10306;52.128;5.208;2023-04-01T01:16:29;13.07;;;9.20;;
20294;SDS011;10306;52.128;5.208;2023-04-01T01:26:55;13.13;;;7.90;;
20294;SDS011;10306;52.128;5.208;2023-04-01T01:34:55;8.23;;;6.50;;
20294;SDS011;10306;52.128;5.208;2023-04-01T01:37:23;7.60;;;6.17;;
20294;SDS011;10306;52.128;5.208;2023-04-01T01:39:52;9.17;;;6.73;;
20294;SDS011;10306;52.128;5.208;2023-04-01T01:42:19;7.40;;;5.87;;
20294;SDS011;10306;52.128;5.208;2023-04-01T01:44:46;12.77;;;6.70;;
20294;SDS011;10306;52.128;5.208;2023-04-01T01:47:13;8.67;;;5.70;;
20294;SDS011;10306;52.128;5.208;2023-04-01T01:49:39;10.87;;;6.30;;
20294;SDS011;10306;52.128;5.208;2023-04-01T01:52:07;10.53;;;6.10;;
20294;SDS011;10306;52.128;5.208;2023-04-01T01:54:33;7.10;;;5.17;;
20294;SDS011;10306;52.128;5.208;2023-04-01T01:57:02;9.07;;;5.40;;
20294;SDS011;10306;52.128;5.208;2023-04-01T01:59:30;9.03;;;4.90;;
20294;SDS011;10306;52.128;5.208;2023-04-01T02:01:57;7.87;;;5.70;;
20294;SDS011;10306;52.128;5.208;2023-04-01T02:04:24;11.83;;;5.60;;
20294;SDS011;10306;52.128;5.208;2023-04-01T02:06:56;10.93;;;5.90;;
20294;SDS011;10306;52.128;5.208;2023-04-01T02:09:25;6.90;;;5.53;;
20294;SDS011;10306;52.128;5.208;2023-04-01T02:11:53;8.77;;;5.57;;
20294;SDS011;10306;52.128;5.208;2023-04-01T02:14:25;6.17;;;5.53;;
20294;SDS011;10306;52.128;5.208;2023-04-01T02:16:57;7.67;;;5.80;;
20294;SDS011;10306;52.128;5.208;2023-04-01T02:19:25;7.93;;;5.97;;
20294;SDS011;10306;52.128;5.208;2023-04-01T02:21:53;9.10;;;6.10;;
20294;SDS011;10306;52.128;5.208;2023-04-01T02:24:21;9.73;;;5.83;;
20294;SDS011;10306;52.128;5.208;2023-04-01T02:26:52;11.27;;;6.00;;
20294;SDS011;10306;52.128;5.208;2023-04-01T02:29:19;8.57;;;6.20;;
20294;SDS011;10306;52.128;5.208;2023-04-01T02:31:46;14.50;;;6.50;;
20294;SDS011;10306;52.128;5.208;2023-04-01T02:34:12;7.93;;;6.47;;
20294;SDS011;10306;52.128;5.208;2023-04-01T02:36:38;9.13;;;6.20;;
20294;SDS011;10306;52.128;5.208;2023-04-01T02:39:04;7.73;;;5.70;;
20294;SDS011;10306;52.128;5.208;2023-04-01T02:41:31;13.30;;;5.30;;
20294;SDS011;10306;52.128;5.208;2023-04-01T02:43:57;10.97;;;5.23;;
20294;SDS011;10306;52.128;5.208;2023-04-01T02:46:24;8.73;;;5.73;;
20294;SDS011;10306;52.128;5.208;2023-04-01T02:48:50;7.80;;;5.07;;
20294;SDS011;10306;52.128;5.208;2023-04-01T02:51:16;7.17;;;5.27;;
20294;SDS011;10306;52.128;5.208;2023-04-01T02:53:42;9.23;;;5.17;;
20294;SDS011;10306;52.128;5.208;2023-04-01T02:56:08;9.13;;;5.33;;
20294;SDS011;10306;52.128;5.208;2023-04-01T02:58:34;6.63;;;5.20;;
20294;SDS011;10306;52.128;5.208;2023-04-01T03:01:00;8.50;;;6.03;;
20294;SDS011;10306;52.128;5.208;2023-04-01T03:03:26;9.20;;;5.40;;
20294;SDS011;10306;52.128;5.208;2023-04-01T03:05:52;7.33;;;5.50;;
20294;SDS011;10306;52.128;5.208;2023-04-01T03:08:21;10.77;;;5.97;;
20294;SDS011;10306;52.128;5.208;2023-04-01T03:10:47;8.83;;;6.40;;
20294;SDS011;10306;52.128;5.208;2023-04-01T03:13:12;11.20;;;7.20;;
20294;SDS011;10306;52.128;5.208;2023-04-01T03:15:38;13.10;;;6.70;;
20294;SDS011;10306;52.128;5.208;2023-04-01T03:18:05;10.90;;;7.27;;
20294;SDS011;10306;52.128;5.208;2023-04-01T03:20:31;10.57;;;6.73;;
20294;SDS011;10306;52.128;5.208;2023-04-01T03:22:57;11.20;;;7.10;;
20294;SDS011;10306;52.128;5.208;2023-04-01T03:25:23;13.30;;;7.47;;
20294;SDS011;10306;52.128;5.208;2023-04-01T03:27:48;11.73;;;7.43;;
20294;SDS011;10306;52.128;5.208;2023-04-01T03:30:14;11.03;;;7.40;;
20294;SDS011;10306;52.128;5.208;2023-04-01T03:32:40;11.80;;;6.97;;
20294;SDS011;10306;52.128;5.208;2023-04-01T03:35:06;12.57;;;7.93;;
20294;SDS011;10306;52.128;5.208;2023-04-01T03:37:34;13.63;;;7.53;;
20294;SDS011;10306;52.128;5.208;2023-04-01T03:40:00;13.77;;;7.53;;
20294;SDS011;10306;52.128;5.208;2023-04-01T03:42:26;11.70;;;7.23;;
20294;SDS011;10306;52.128;5.208;2023-04-01T03:44:52;9.80;;;7.37;;
20294;SDS011;10306;52.128;5.208;2023-04-01T03:47:18;12.30;;;7.60;;
20294;SDS011;10306;52.128;5.208;2023-04-01T03:49:44;11.60;;;7.63;;
20294;SDS011;10306;52.128;5.208;2023-04-01T03:52:10;13.93;;;7.97;;
20294;SDS011;10306;52.128;5.208;2023-04-01T03:54:37;11.53;;;7.33;;
20294;SDS011;10306;52.128;5.208;2023-04-01T03:57:03;15.57;;;7.70;;
20294;SDS011;10306;52.128;5.208;2023-04-01T03:59:29;16.23;;;7.50;;
20294;SDS011;10306;52.128;5.208;2023-04-01T04:01:55;13.30;;;8.50;;
20294;SDS011;10306;52.128;5.208;2023-04-01T04:04:21;10.20;;;7.33;;
20294;SDS011;10306;52.128;5.208;2023-04-01T04:06:47;13.70;;;7.83;;
20294;SDS011;10306;52.128;5.208;2023-04-01T04:09:13;13.87;;;7.90;;
20294;SDS011;10306;52.128;5.208;2023-04-01T04:11:39;16.03;;;8.23;;
20294;SDS011;10306;52.128;5.208;2023-04-01T04:14:05;19.40;;;8.10;;
20294;SDS011;10306;52.128;5.208;2023-04-01T04:16:31;12.93;;;7.90;;
20294;SDS011;10306;52.128;5.208;2023-04-01T04:18:57;12.33;;;6.23;;
20294;SDS011;10306;52.128;5.208;2023-04-01T04:21:23;13.77;;;7.17;;
20294;SDS011;10306;52.128;5.208;2023-04-01T04:23:49;13.13;;;6.23;;
20294;SDS011;10306;52.128;5.208;2023-04-01T04:26:15;10.43;;;4.90;;
20294;SDS011;10306;52.128;5.208;2023-04-01T04:28:42;7.43;;;4.67;;
20294;SDS011;10306;52.128;5.208;2023-04-01T04:31:08;10.00;;;4.80;;
20294;SDS011;10306;52.128;5.208;2023-04-01T04:33:34;6.10;;;3.93;;
20294;SDS011;10306;52.128;5.208;2023-04-01T04:36:00;7.70;;;4.20;;
20294;SDS011;10306;52.128;5.208;2023-04-01T04:38:27;7.10;;;4.10;;
20294;SDS011;10306;52.128;5.208;2023-04-01T04:40:53;8.90;;;4.27;;
20294;SDS011;10306;52.128;5.208;2023-04-01T04:43:18;6.47;;;4.13;;
20294;SDS011;10306;52.128;5.208;2023-04-01T04:45:45;7.80;;;4.47;;
20294;SDS011;10306;52.128;5.208;2023-04-01T04:48:11;8.47;;;4.40;;
20294;SDS011;10306;52.128;5.208;2023-04-01T04:50:41;10.90;;;4.87;;
20294;SDS011;10306;52.128;5.208;2023-04-01T04:53:11;7.93;;;4.60;;
20294;SDS011;10306;52.128;5.208;2023-04-01T04:55:37;11.70;;;5.57;;
20294;SDS011;10306;52.128;5.208;2023-04-01T04:58:03;8.13;;;4.83;;
20294;SDS011;10306;52.128;5.208;2023-04-01T05:00:29;12.37;;;5.40;;
20294;SDS011;10306;52.128;5.208;2023-04-01T05:02:55;12.37;;;5.80;;
20294;SDS011;10306;52.128;5.208;2023-04-01T05:05:20;13.03;;;5.30;;
20294;SDS011;10306;52.128;5.208;2023-04-01T05:07:46;12.60;;;5.77;;
20294;SDS011;10306;52.128;5.208;2023-04-01T05:10:12;10.90;;;5.60;;
20294;SDS011;10306;52.128;5.208;2023-04-01T05:12:38;10.90;;;5.73;;
20294;SDS011;10306;52.128;5.208;2023-04-01T05:15:06;12.87;;;5.90;;
20294;SDS011;10306;52.128;5.208;2023-04-01T05:17:33;12.57;;;6.13;;
20294;SDS011;10306;52.128;5.208;2023-04-01T05:19:59;12.43;;;6.70;;
20294;SDS011;10306;52.128;5.208;2023-04-01T05:22:25;13.60;;;7.00;;
20294;SDS011;10306;52.128;5.208;2023-04-01T05:24:51;12.13;;;6.07;;
20294;SDS011;10306;52.128;5.208;2023-04-01T05:27:17;12.20;;;6.20;;
20294;SDS011;10306;52.128;5.208;2023-04-01T05:29:43;11.67;;;6.43;;
20294;SDS011;10306;52.128;5.208;2023-04-01T05:32:09;12.53;;;6.63;;
20294;SDS011;10306;52.128;5.208;2023-04-01T05:34:35;13.23;;;6.33;;
20294;SDS011;10306;52.128;5.208;2023-04-01T05:37:01;11.57;;;5.70;;
20294;SDS011;10306;52.128;5.208;2023-04-01T05:39:27;14.23;;;6.27;;
20294;SDS011;10306;52.128;5.208;2023-04-01T05:41:53;14.00;;;7.13;;
20294;SDS011;10306;52.128;5.208;2023-04-01T05:44:19;11.20;;;6.67;;
20294;SDS011;10306;52.128;5.208;2023-04-01T05:46:45;14.13;;;6.77;;
20294;SDS011;10306;52.128;5.208;2023-04-01T05:49:11;13.53;;;6.97;;
20294;SDS011;10306;52.128;5.208;2023-04-01T05:51:37;12.07;;;6.90;;
20294;SDS011;10306;52.128;5.208;2023-04-01T05:54:06;11.10;;;6.53;;
20294;SDS011;10306;52.128;5.208;2023-04-01T05:56:32;12.93;;;7.30;;
20294;SDS011;10306;52.128;5.208;2023-04-01T05:58:57;15.20;;;8.20;;
20294;SDS011;10306;52.128;5.208;2023-04-01T06:01:23;15.00;;;7.50;;
20294;SDS011;10306;52.128;5.208;2023-04-01T06:03:50;14.40;;;7.37;;
20294;SDS011;10306;52.128;5.208;2023-04-01T06:06:19;12.10;;;7.70;;
20294;SDS011;10306;52.128;5.208;2023-04-01T06:08:47;15.30;;;8.17;;
20294;SDS011;10306;52.128;5.208;2023-04-01T06:11:23;12.67;;;8.13;;
20294;SDS011;10306;52.128;5.208;2023-04-01T06:19:13;11.83;;;7.30;;
20294;SDS011;10306;52.128;5.208;2023-04-01T06:21:50;11.63;;;7.47;;
20294;SDS011;10306;52.128;5.208;2023-04-01T06:26:59;12.20;;;7.60;;
20294;SDS011;10306;52.128;5.208;2023-04-01T06:32:38;11.97;;;7.30;;
20294;SDS011;10306;52.128;5.208;2023-04-01T06:45:41;10.50;;;5.27;;
20294;SDS011;10306;52.128;5.208;2023-04-01T06:48:15;8.00;;;5.47;;
20294;SDS011;10306;52.128;5.208;2023-04-01T06:56:20;10.53;;;6.10;;
20294;SDS011;10306;52.128;5.208;2023-04-01T06:59:08;10.17;;;6.00;;
20294;SDS011;10306;52.128;5.208;2023-04-01T07:01:37;9.87;;;6.13;;
20294;SDS011;10306;52.128;5.208;2023-04-01T07:06:31;11.67;;;6.20;;
20294;SDS011;10306;52.128;5.208;2023-04-01T07:08:58;9.07;;;5.70;;
20294;SDS011;10306;52.128;5.208;2023-04-01T07:11:31;14.83;;;6.87;;
20294;SDS011;10306;52.128;5.208;2023-04-01T07:13:59;13.03;;;7.20;;
20294;SDS011;10306;52.128;5.208;2023-04-01T07:16:29;12.13;;;7.07;;
20294;SDS011;10306;52.128;5.208;2023-04-01T07:18:58;12.43;;;6.73;;
20294;SDS011;10306;52.128;5.208;2023-04-01T07:21:28;12.27;;;6.87;;
20294;SDS011;10306;52.128;5.208;2023-04-01T07:23:56;11.17;;;6.67;;
20294;SDS011;10306;52.128;5.208;2023-04-01T07:26:25;12.27;;;7.07;;
20294;SDS011;10306;52.128;5.208;2023-04-01T07:28:51;10.27;;;6.67;;
20294;SDS011;10306;52.128;5.208;2023-04-01T07:33:56;13.20;;;7.07;;
20294;SDS011;10306;52.128;5.208;2023-04-01T07:36:28;9.90;;;6.33;;
20294;SDS011;10306;52.128;5.208;2023-04-01T07:41:38;11.67;;;6.80;;
20294;SDS011;10306;52.128;5.208;2023-04-01T07:44:10;16.57;;;7.90;;
20294;SDS011;10306;52.128;5.208;2023-04-01T07:49:14;12.67;;;6.80;;
20294;SDS011;10306;52.128;5.208;2023-04-01T07:51:44;16.67;;;7.37;;
20294;SDS011;10306;52.128;5.208;2023-04-01T07:54:13;13.60;;;7.60;;
20294;SDS011;10306;52.128;5.208;2023-04-01T07:56:58;14.50;;;7.70;;
20294;SDS011;10306;52.128;5.208;2023-04-01T08:02:15;15.43;;;7.93;;
20294;SDS011;10306;52.128;5.208;2023-04-01T08:05:04;15.50;;;7.70;;
20294;SDS011;10306;52.128;5.208;2023-04-01T08:10:06;17.20;;;8.10;;
20294;SDS011;10306;52.128;5.208;2023-04-01T08:15:05;16.77;;;9.43;;
20294;SDS011;10306;52.128;5.208;2023-04-01T08:17:45;15.93;;;8.50;;
20294;SDS011;10306;52.128;5.208;2023-04-01T08:23:00;19.93;;;9.07;;
20294;SDS011;10306;52.128;5.208;2023-04-01T08:25:31;22.70;;;9.67;;
20294;SDS011;10306;52.128;5.208;2023-04-01T08:33:24;20.37;;;9.80;;
20294;SDS011;10306;52.128;5.208;2023-04-01T08:35:56;17.17;;;9.00;;
20294;SDS011;10306;52.128;5.208;2023-04-01T08:38:26;20.23;;;9.87;;
20294;SDS011;10306;52.128;5.208;2023-04-01T08:40:57;17.33;;;9.43;;
20294;SDS011;10306;52.128;5.208;2023-04-01T08:45:57;19.30;;;10.13;;
20294;SDS011;10306;52.128;5.208;2023-04-01T08:56:20;23.70;;;10.87;;
20294;SDS011;10306;52.128;5.208;2023-04-01T09:11:55;22.77;;;10.13;;
20294;SDS011;10306;52.128;5.208;2023-04-01T09:28:12;17.60;;;9.10;;
20294;SDS011;10306;52.128;5.208;2023-04-01T09:33:24;15.93;;;8.17;;
20294;SDS011;10306;52.128;5.208;2023-04-01T09:36:02;12.70;;;8.10;;
20294;SDS011;10306;52.128;5.208;2023-04-01T09:38:29;13.80;;;7.90;;
20294;SDS011;10306;52.128;5.208;2023-04-01T10:17:17;4.60;;;4.20;;
20294;SDS011;10306;52.128;5.208;2023-04-01T10:20:12;5.00;;;4.50;;
20294;SDS011;10306;52.128;5.208;2023-04-01T10:30:30;6.00;;;4.80;;
20294;SDS011;10306;52.128;5.208;2023-04-01T10:45:55;7.00;;;6.07;;
20294;SDS011;10306;52.128;5.208;2023-04-01T11:19:52;4.00;;;3.70;;
20294;SDS011;10306;52.128;5.208;2023-04-01T11:27:25;3.67;;;3.47;;
20294;SDS011;10306;52.128;5.208;2023-04-01T11:37:29;4.47;;;4.17;;
20294;SDS011;10306;52.128;5.208;2023-04-01T11:39:59;4.10;;;3.80;;
20294;SDS011;10306;52.128;5.208;2023-04-01T11:50:14;3.10;;;2.90;;
20294;SDS011;10306;52.128;5.208;2023-04-01T11:55:30;4.30;;;4.00;;
20294;SDS011;10306;52.128;5.208;2023-04-01T11:58:08;3.90;;;3.60;;
20294;SDS011;10306;52.128;5.208;2023-04-01T12:00:52;3.90;;;3.70;;
20294;SDS011;10306;52.128;5.208;2023-04-01T12:09:04;5.10;;;4.70;;
20294;SDS011;10306;52.128;5.208;2023-04-01T12:11:44;5.60;;;5.20;;
20294;SDS011;10306;52.128;5.208;2023-04-01T12:24:51;8.07;;;7.37;;
20294;SDS011;10306;52.128;5.208;2023-04-01T12:35:26;7.07;;;6.37;;
20294;SDS011;10306;52.128;5.208;2023-04-01T12:38:05;6.13;;;5.57;;
20294;SDS011;10306;52.128;5.208;2023-04-01T12:43:44;5.67;;;5.07;;
20294;SDS011;10306;52.128;5.208;2023-04-01T13:07:10;8.37;;;6.70;;
20294;SDS011;10306;52.128;5.208;2023-04-01T13:14:54;8.63;;;6.63;;
20294;SDS011;10306;52.128;5.208;2023-04-01T13:17:31;6.40;;;5.90;;
20294;SDS011;10306;52.128;5.208;2023-04-01T13:25:21;6.10;;;5.50;;
20294;SDS011;10306;52.128;5.208;2023-04-01T13:30:44;5.10;;;4.70;;
20294;SDS011;10306;52.128;5.208;2023-04-01T13:43:18;4.60;;;4.20;;
20294;SDS011;10306;52.128;5.208;2023-04-01T13:51:15;6.17;;;5.57;;
20294;SDS011;10306;52.128;5.208;2023-04-01T13:53:57;3.70;;;3.50;;
20294;SDS011;10306;52.128;5.208;2023-04-01T13:56:41;3.70;;;3.50;;
20294;SDS011;10306;52.128;5.208;2023-04-01T14:04:24;3.87;;;3.67;;
20294;SDS011;10306;52.128;5.208;2023-04-01T14:07:00;3.70;;;3.37;;
20294;SDS011;10306;52.128;5.208;2023-04-01T14:12:10;4.70;;;4.40;;
20294;SDS011;10306;52.128;5.208;2023-04-01T14:28:14;7.00;;;5.93;;
20294;SDS011;10306;52.128;5.208;2023-04-01T14:33:28;7.70;;;6.90;;
20294;SDS011;10306;52.128;5.208;2023-04-01T14:38:31;7.23;;;6.47;;
20294;SDS011;10306;52.128;5.208;2023-04-01T14:41:13;9.73;;;6.73;;
20294;SDS011;10306;52.128;5.208;2023-04-01T14:46:30;6.73;;;5.90;;
20294;SDS011;10306;52.128;5.208;2023-04-01T14:49:02;7.70;;;6.90;;
20294;SDS011;10306;52.128;5.208;2023-04-01T14:51:36;7.97;;;6.63;;
20294;SDS011;10306;52.128;5.208;2023-04-01T14:54:06;7.10;;;6.40;;
20294;SDS011;10306;52.128;5.208;2023-04-01T14:56:47;7.83;;;6.47;;
20294;SDS011;10306;52.128;5.208;2023-04-01T15:02:03;5.80;;;5.40;;
20294;SDS011;10306;52.128;5.208;2023-04-01T15:04:50;6.20;;;5.53;;
20294;SDS011;10306;52.128;5.208;2023-04-01T15:15:44;7.50;;;5.87;;
20294;SDS011;10306;52.128;5.208;2023-04-01T15:20:33;6.80;;;5.33;;
20294;SDS011;10306;52.128;5.208;2023-04-01T15:28:04;4.17;;;3.97;;
20294;SDS011;10306;52.128;5.208;2023-04-01T15:40:57;4.80;;;4.40;;
20294;SDS011;10306;52.128;5.208;2023-04-01T15:43:28;4.20;;;4.00;;
20294;SDS011;10306;52.128;5.208;2023-04-01T15:45:58;4.70;;;4.40;;
20294;SDS011;10306;52.128;5.208;2023-04-01T15:51:02;4.40;;;4.03;;
20294;SDS011;10306;52.128;5.208;2023-04-01T15:56:15;4.83;;;4.43;;
20294;SDS011;10306;52.128;5.208;2023-04-01T16:06:59;3.80;;;3.50;;
20294;SDS011;10306;52.128;5.208;2023-04-01T16:09:43;3.80;;;3.50;;
20294;SDS011;10306;52.128;5.208;2023-04-01T16:17:16;3.50;;;3.30;;
20294;SDS011;10306;52.128;5.208;2023-04-01T16:22:14;3.97;;;3.77;;
20294;SDS011;10306;52.128;5.208;2023-04-01T16:27:14;3.23;;;3.13;;
20294;SDS011;10306;52.128;5.208;2023-04-01T16:37:39;2.37;;;2.27;;
20294;SDS011;10306;52.128;5.208;2023-04-01T16:45:41;2.17;;;2.07;;
20294;SDS011;10306;52.128;5.208;2023-04-01T16:50:47;2.23;;;2.13;;
20294;SDS011;10306;52.128;5.208;2023-04-01T16:55:51;2.50;;;2.40;;
20294;SDS011;10306;52.128;5.208;2023-04-01T16:58:21;2.50;;;2.40;;
20294;SDS011;10306;52.128;5.208;2023-04-01T17:00:50;3.40;;;3.20;;
20294;SDS011;10306;52.128;5.208;2023-04-01T17:03:27;3.00;;;2.90;;
20294;SDS011;10306;52.128;5.208;2023-04-01T17:08:34;2.80;;;2.60;;
20294;SDS011;10306;52.128;5.208;2023-04-01T17:13:35;3.53;;;3.33;;
20294;SDS011;10306;52.128;5.208;2023-04-01T17:24:04;3.67;;;3.47;;
20294;SDS011;10306;52.128;5.208;2023-04-01T17:26:40;3.50;;;3.33;;
20294;SDS011;10306;52.128;5.208;2023-04-01T17:34:41;3.73;;;3.53;;
20294;SDS011;10306;52.128;5.208;2023-04-01T17:37:27;3.97;;;3.67;;
20294;SDS011;10306;52.128;5.208;2023-04-01T17:52:52;3.30;;;3.20;;
20294;SDS011;10306;52.128;5.208;2023-04-01T17:55:33;3.40;;;3.30;;
20294;SDS011;10306;52.128;5.208;2023-04-01T17:58:09;3.30;;;3.20;;
20294;SDS011;10306;52.128;5.208;2023-04-01T18:00:47;3.60;;;3.40;;
20294;SDS011;10306;52.128;5.208;2023-04-01T18:03:25;4.00;;;3.80;;
20294;SDS011;10306;52.128;5.208;2023-04-01T18:08:43;4.63;;;4.33;;
20294;SDS011;10306;52.128;5.208;2023-04-01T18:14:00;4.17;;;3.97;;
20294;SDS011;10306;52.128;5.208;2023-04-01T18:16:45;4.00;;;3.80;;
20294;SDS011;10306;52.128;5.208;2023-04-01T18:24:54;4.70;;;4.40;;
20294;SDS011;10306;52.128;5.208;2023-04-01T18:27:23;9.00;;;7.90;;
20294;SDS011;10306;52.128;5.208;2023-04-01T18:43:00;9.07;;;7.20;;
20294;SDS011;10306;52.128;5.208;2023-04-01T18:45:28;5.57;;;5.17;;
20294;SDS011;10306;52.128;5.208;2023-04-01T18:47:58;7.40;;;6.80;;
20294;SDS011;10306;52.128;5.208;2023-04-01T18:56:06;7.33;;;6.73;;
20294;SDS011;10306;52.128;5.208;2023-04-01T19:01:04;9.13;;;8.23;;
20294;SDS011;10306;52.128;5.208;2023-04-01T19:06:23;7.87;;;7.20;;
20294;SDS011;10306;52.128;5.208;2023-04-01T19:08:52;9.37;;;8.03;;
20294;SDS011;10306;52.128;5.208;2023-04-01T19:13:47;6.70;;;6.20;;
20294;SDS011;10306;52.128;5.208;2023-04-01T19:19:02;7.50;;;6.90;;
20294;SDS011;10306;52.128;5.208;2023-04-01T19:21:37;9.87;;;8.97;;
20294;SDS011;10306;52.128;5.208;2023-04-01T19:24:11;8.47;;;7.70;;
20294;SDS011;10306;52.128;5.208;2023-04-01T19:37:08;10.70;;;9.23;;
20294;SDS011;10306;52.128;5.208;2023-04-01T19:40:19;8.87;;;8.07;;
20294;SDS011;10306;52.128;5.208;2023-04-01T19:45:04;7.53;;;6.97;;
20294;SDS011;10306;52.128;5.208;2023-04-01T19:47:39;8.00;;;7.30;;
20294;SDS011;10306;52.128;5.208;2023-04-01T19:52:43;9.20;;;8.33;;
20294;SDS011;10306;52.128;5.208;2023-04-01T19:58:02;7.67;;;7.03;;
20294;SDS011;10306;52.128;5.208;2023-04-01T20:00:32;8.80;;;8.00;;
20294;SDS011;10306;52.128;5.208;2023-04-01T20:03:04;8.90;;;8.13;;
20294;SDS011;10306;52.128;5.208;2023-04-01T20:08:03;10.23;;;8.30;;
20294;SDS011;10306;52.128;5.208;2023-04-01T20:10:33;8.00;;;7.30;;
20294;SDS011;10306;52.128;5.208;2023-04-01T20:15:34;9.23;;;8.33;;
20294;SDS011;10306;52.128;5.208;2023-04-01T20:18:02;10.00;;;9.03;;
20294;SDS011;10306;52.128;5.208;2023-04-01T20:20:29;9.27;;;8.37;;
20294;SDS011;10306;52.128;5.208;2023-04-01T20:25:48;8.20;;;7.40;;
20294;SDS011;10306;52.128;5.208;2023-04-01T20:31:02;8.07;;;7.37;;
20294;SDS011;10306;52.128;5.208;2023-04-01T20:39:26;8.47;;;7.70;;
20294;SDS011;10306;52.128;5.208;2023-04-01T20:44:28;8.47;;;7.67;;
20294;SDS011;10306;52.128;5.208;2023-04-01T20:47:03;8.40;;;7.60;;
20294;SDS011;10306;52.128;5.208;2023-04-01T20:49:40;8.10;;;7.40;;
20294;SDS011;10306;52.128;5.208;2023-04-01T21:10:24;6.37;;;5.87;;
20294;SDS011;10306;52.128;5.208;2023-04-01T21:15:58;6.63;;;6.00;;
20294;SDS011;10306;52.128;5.208;2023-04-01T21:18:51;8.30;;;6.17;;
20294;SDS011;10306;52.128;5.208;2023-04-01T21:32:07;7.13;;;6.17;;
20294;SDS011;10306;52.128;5.208;2023-04-01T21:34:36;7.50;;;6.63;;
20294;SDS011;10306;52.128;5.208;2023-04-01T21:37:10;6.30;;;5.80;;
20294;SDS011;10306;52.128;5.208;2023-04-01T21:49:59;8.43;;;7.67;;
20294;SDS011;10306;52.128;5.208;2023-04-01T22:00:21;7.23;;;6.63;;
20294;SDS011;10306;52.128;5.208;2023-04-01T22:05:35;8.40;;;6.87;;
20294;SDS011;10306;52.128;5.208;2023-04-01T22:08:24;8.57;;;7.67;;
20294;SDS011;10306;52.128;5.208;2023-04-01T22:13:29;7.20;;;6.57;;
20294;SDS011;10306;52.128;5.208;2023-04-01T22:18:48;8.20;;;6.93;;
20294;SDS011;10306;52.128;5.208;2023-04-01T22:26:47;8.80;;;7.90;;
20294;SDS011;10306;52.128;5.208;2023-04-01T22:32:11;8.00;;;6.93;;
20294;SDS011;10306;52.128;5.208;2023-04-01T22:34:59;8.30;;;7.60;;
20294;SDS011;10306;52.128;5.208;2023-04-01T22:37:37;9.93;;;7.93;;
20294;SDS011;10306;52.128;5.208;2023-04-01T22:42:42;8.53;;;7.73;;
20294;SDS011;10306;52.128;5.208;2023-04-01T22:47:46;9.10;;;8.27;;
20294;SDS011;10306;52.128;5.208;2023-04-01T22:50:22;13.27;;;9.07;;
20294;SDS011;10306;52.128;5.208;2023-04-01T22:52:53;8.83;;;7.93;;
20294;SDS011;10306;52.128;5.208;2023-04-01T22:55:22;10.13;;;9.13;;
20294;SDS011;10306;52.128;5.208;2023-04-01T23:00:30;8.70;;;7.90;;
20294;SDS011;10306;52.128;5.208;2023-04-01T23:03:06;10.20;;;8.53;;
20294;SDS011;10306;52.128;5.208;2023-04-01T23:05:34;9.13;;;8.23;;
20294;SDS011;10306;52.128;5.208;2023-04-01T23:10:49;12.40;;;9.80;;
20294;SDS011;10306;52.128;5.208;2023-04-01T23:13:22;10.30;;;9.13;;
20294;SDS011;10306;52.128;5.208;2023-04-01T23:15:50;13.30;;;8.87;;
20294;SDS011;10306;52.128;5.208;2023-04-01T23:19:00;14.87;;;8.77;;
20294;SDS011;10306;52.128;5.208;2023-04-01T23:21:09;13.00;;;9.10;;
20294;SDS011;10306;52.128;5.208;2023-04-01T23:26:24;10.10;;;8.93;;
20294;SDS011;10306;52.128;5.208;2023-04-01T23:28:52;9.77;;;8.70;;
20294;SDS011;10306;52.128;5.208;2023-04-01T23:31:26;11.10;;;9.50;;
20294;SDS011;10306;52.128;5.208;2023-04-01T23:34:00;9.67;;;8.37;;
20294;SDS011;10306;52.128;5.208;2023-04-01T23:36:27;10.63;;;8.93;;
20294;SDS011;10306;52.128;5.208;2023-04-01T23:38:53;11.43;;;9.23;;
20294;SDS011;10306;52.128;5.208;2023-04-01T23:41:29;12.97;;;10.17;;
20294;SDS011;10306;52.128;5.208;2023-04-01T23:43:58;9.57;;;8.63;;
20294;SDS011;10306;52.128;5.208;2023-04-01T23:46:25;10.37;;;9.10;;
20294;SDS011;10306;52.128;5.208;2023-04-01T23:48:51;10.10;;;9.00;;
20294;SDS011;10306;52.128;5.208;2023-04-01T23:51:20;12.50;;;9.17;;
20294;SDS011;10306;52.128;5.208;2023-04-01T23:53:47;13.00;;;9.37;;
20294;SDS011;10306;52.128;5.208;2023-04-01T23:56:21;12.50;;;9.90;;
20294;SDS011;10306;52.128;5.208;2023-04-01T23:58:48;11.47;;;9.27;;
